sensor_id;sensor_type;location;lat;lon;timestamp;temperature;humidity
12634;DHT22;6382;48.614;8.880;2022-12-20T00:00:50;2.50;99.90
12634;DHT22;6382;48.614;8.880;2022-12-20T00:03:17;2.60;99.90
12634;DHT22;6382;48.614;8.880;2022-12-20T00:05:45;2.60;99.90
12634;DHT22;6382;48.614;8.880;2022-12-20T00:08:12;2.60;99.90
12634;DHT22;6382;48.614;8.880;2022-12-20T00:10:40;2.60;99.90
12634;DHT22;6382;48.614;8.880;2022-12-20T00:13:07;4.50;99.90
12634;DHT22;6382;48.614;8.880;2022-12-20T00:15:34;2.50;99.90
12634;DHT22;6382;48.614;8.880;2022-12-20T00:18:00;4.20;99.90
12634;DHT22;6382;48.614;8.880;2022-12-20T00:20:27;2.60;99.90
12634;DHT22;6382;48.614;8.880;2022-12-20T00:22:54;3.60;99.90
12634;DHT22;6382;48.614;8.880;2022-12-20T00:25:21;2.50;99.90
12634;DHT22;6382;48.614;8.880;2022-12-20T00:27:48;3.90;99.90
12634;DHT22;6382;48.614;8.880;2022-12-20T00:30:15;2.40;99.90
12634;DHT22;6382;48.614;8.880;2022-12-20T00:32:42;2.40;99.90
12634;DHT22;6382;48.614;8.880;2022-12-20T00:35:09;2.30;99.90
12634;DHT22;6382;48.614;8.880;2022-12-20T00:37:36;2.40;99.90
12634;DHT22;6382;48.614;8.880;2022-12-20T00:40:03;2.40;99.90
12634;DHT22;6382;48.614;8.880;2022-12-20T00:42:30;2.40;99.90
12634;DHT22;6382;48.614;8.880;2022-12-20T00:44:57;2.50;99.90
12634;DHT22;6382;48.614;8.880;2022-12-20T00:47:23;2.60;99.90
12634;DHT22;6382;48.614;8.880;2022-12-20T00:49:50;2.60;99.90
12634;DHT22;6382;48.614;8.880;2022-12-20T00:52:17;2.70;99.90
12634;DHT22;6382;48.614;8.880;2022-12-20T00:54:43;2.80;99.90
12634;DHT22;6382;48.614;8.880;2022-12-20T00:57:10;2.80;99.90
12634;DHT22;6382;48.614;8.880;2022-12-20T00:59:37;2.90;99.90
12634;DHT22;6382;48.614;8.880;2022-12-20T01:02:03;2.90;99.90
12634;DHT22;6382;48.614;8.880;2022-12-20T01:04:31;2.80;99.90
12634;DHT22;6382;48.614;8.880;2022-12-20T01:06:57;2.90;99.90
12634;DHT22;6382;48.614;8.880;2022-12-20T01:09:24;3.00;99.90
12634;DHT22;6382;48.614;8.880;2022-12-20T01:11:51;4.70;99.90
12634;DHT22;6382;48.614;8.880;2022-12-20T01:14:17;3.00;99.90
12634;DHT22;6382;48.614;8.880;2022-12-20T01:16:44;3.00;99.90
12634;DHT22;6382;48.614;8.880;2022-12-20T01:19:13;4.70;99.90
12634;DHT22;6382;48.614;8.880;2022-12-20T01:21:40;4.50;99.90
12634;DHT22;6382;48.614;8.880;2022-12-20T01:24:11;4.90;99.90
12634;DHT22;6382;48.614;8.880;2022-12-20T01:26:38;4.30;99.90
12634;DHT22;6382;48.614;8.880;2022-12-20T01:29:05;3.00;99.90
12634;DHT22;6382;48.614;8.880;2022-12-20T01:31:32;3.00;99.90
12634;DHT22;6382;48.614;8.880;2022-12-20T01:33:59;3.00;99.90
12634;DHT22;6382;48.614;8.880;2022-12-20T01:36:27;4.20;99.90
12634;DHT22;6382;48.614;8.880;2022-12-20T01:38:58;5.30;99.90
12634;DHT22;6382;48.614;8.880;2022-12-20T01:41:26;3.00;99.90
12634;DHT22;6382;48.614;8.880;2022-12-20T01:43:57;3.00;99.90
12634;DHT22;6382;48.614;8.880;2022-12-20T01:46:25;3.00;99.90
12634;DHT22;6382;48.614;8.880;2022-12-20T01:51:33;2.90;99.90
12634;DHT22;6382;48.614;8.880;2022-12-20T01:54:07;2.90;99.90
12634;DHT22;6382;48.614;8.880;2022-12-20T01:56:35;2.80;99.90
12634;DHT22;6382;48.614;8.880;2022-12-20T01:59:03;2.80;99.90
12634;DHT22;6382;48.614;8.880;2022-12-20T02:01:29;2.80;99.90
12634;DHT22;6382;48.614;8.880;2022-12-20T02:03:57;3.60;99.90
12634;DHT22;6382;48.614;8.880;2022-12-20T02:06:24;2.70;99.90
12634;DHT22;6382;48.614;8.880;2022-12-20T02:08:51;2.70;99.90
12634;DHT22;6382;48.614;8.880;2022-12-20T02:16:34;2.50;99.90
12634;DHT22;6382;48.614;8.880;2022-12-20T02:19:09;2.50;99.90
12634;DHT22;6382;48.614;8.880;2022-12-20T02:24:44;2.50;99.90
12634;DHT22;6382;48.614;8.880;2022-12-20T02:30:09;2.50;99.90
12634;DHT22;6382;48.614;8.880;2022-12-20T02:32:54;2.40;99.90
12634;DHT22;6382;48.614;8.880;2022-12-20T02:35:23;2.40;99.90
12634;DHT22;6382;48.614;8.880;2022-12-20T02:37:51;3.20;99.90
12634;DHT22;6382;48.614;8.880;2022-12-20T02:40:20;2.30;99.90
12634;DHT22;6382;48.614;8.880;2022-12-20T02:42:48;2.30;99.90
12634;DHT22;6382;48.614;8.880;2022-12-20T02:45:17;2.20;99.90
12634;DHT22;6382;48.614;8.880;2022-12-20T02:47:51;2.20;99.90
12634;DHT22;6382;48.614;8.880;2022-12-20T02:50:22;2.10;99.90
12634;DHT22;6382;48.614;8.880;2022-12-20T02:52:51;2.10;99.90
12634;DHT22;6382;48.614;8.880;2022-12-20T02:55:19;2.10;99.90
12634;DHT22;6382;48.614;8.880;2022-12-20T03:00:23;2.00;99.90
12634;DHT22;6382;48.614;8.880;2022-12-20T03:02:50;2.10;99.90
12634;DHT22;6382;48.614;8.880;2022-12-20T03:05:42;2.00;99.90
12634;DHT22;6382;48.614;8.880;2022-12-20T03:08:09;2.00;99.90
12634;DHT22;6382;48.614;8.880;2022-12-20T03:10:37;2.00;99.90
12634;DHT22;6382;48.614;8.880;2022-12-20T03:13:03;2.00;99.90
12634;DHT22;6382;48.614;8.880;2022-12-20T03:15:30;3.20;99.90
12634;DHT22;6382;48.614;8.880;2022-12-20T03:18:03;4.10;99.90
12634;DHT22;6382;48.614;8.880;2022-12-20T03:20:30;1.90;99.90
12634;DHT22;6382;48.614;8.880;2022-12-20T03:22:57;2.30;99.90
12634;DHT22;6382;48.614;8.880;2022-12-20T03:25:23;2.00;99.90
12634;DHT22;6382;48.614;8.880;2022-12-20T03:27:50;2.00;99.90
12634;DHT22;6382;48.614;8.880;2022-12-20T03:30:17;2.00;99.90
12634;DHT22;6382;48.614;8.880;2022-12-20T03:32:43;1.90;99.90
12634;DHT22;6382;48.614;8.880;2022-12-20T03:35:10;1.90;99.90
12634;DHT22;6382;48.614;8.880;2022-12-20T03:37:37;1.90;99.90
12634;DHT22;6382;48.614;8.880;2022-12-20T03:40:04;1.90;99.90
12634;DHT22;6382;48.614;8.880;2022-12-20T03:42:31;1.80;99.90
12634;DHT22;6382;48.614;8.880;2022-12-20T03:44:57;1.90;99.90
12634;DHT22;6382;48.614;8.880;2022-12-20T03:47:24;1.80;99.90
12634;DHT22;6382;48.614;8.880;2022-12-20T03:49:51;1.80;99.90
12634;DHT22;6382;48.614;8.880;2022-12-20T03:52:18;1.80;99.90
12634;DHT22;6382;48.614;8.880;2022-12-20T03:54:45;1.80;99.90
12634;DHT22;6382;48.614;8.880;2022-12-20T03:57:12;1.80;99.90
12634;DHT22;6382;48.614;8.880;2022-12-20T03:59:38;3.20;99.90
12634;DHT22;6382;48.614;8.880;2022-12-20T04:02:05;1.90;99.90
12634;DHT22;6382;48.614;8.880;2022-12-20T04:04:32;1.90;99.90
12634;DHT22;6382;48.614;8.880;2022-12-20T04:06:58;1.90;99.90
12634;DHT22;6382;48.614;8.880;2022-12-20T04:09:25;2.00;99.90
12634;DHT22;6382;48.614;8.880;2022-12-20T04:11:52;2.00;99.90
12634;DHT22;6382;48.614;8.880;2022-12-20T04:14:18;2.00;99.90
12634;DHT22;6382;48.614;8.880;2022-12-20T04:16:45;2.00;99.90
12634;DHT22;6382;48.614;8.880;2022-12-20T04:19:12;2.00;99.90
12634;DHT22;6382;48.614;8.880;2022-12-20T04:21:38;2.10;99.90
12634;DHT22;6382;48.614;8.880;2022-12-20T04:24:05;2.10;99.90
12634;DHT22;6382;48.614;8.880;2022-12-20T04:26:32;2.10;99.90
12634;DHT22;6382;48.614;8.880;2022-12-20T04:28:59;2.20;99.90
12634;DHT22;6382;48.614;8.880;2022-12-20T04:31:26;2.20;99.90
12634;DHT22;6382;48.614;8.880;2022-12-20T04:33:52;2.20;99.90
12634;DHT22;6382;48.614;8.880;2022-12-20T04:36:19;2.20;99.90
12634;DHT22;6382;48.614;8.880;2022-12-20T04:38:46;2.30;99.90
12634;DHT22;6382;48.614;8.880;2022-12-20T04:41:13;2.30;99.90
12634;DHT22;6382;48.614;8.880;2022-12-20T04:43:54;2.30;99.90
12634;DHT22;6382;48.614;8.880;2022-12-20T04:46:22;2.40;99.90
12634;DHT22;6382;48.614;8.880;2022-12-20T04:48:49;2.40;99.90
12634;DHT22;6382;48.614;8.880;2022-12-20T04:51:25;2.50;99.90
12634;DHT22;6382;48.614;8.880;2022-12-20T04:53:52;2.50;99.90
12634;DHT22;6382;48.614;8.880;2022-12-20T04:56:23;2.50;99.90
12634;DHT22;6382;48.614;8.880;2022-12-20T04:58:51;2.40;99.90
12634;DHT22;6382;48.614;8.880;2022-12-20T05:01:18;2.50;99.90
12634;DHT22;6382;48.614;8.880;2022-12-20T05:03:45;2.60;99.90
12634;DHT22;6382;48.614;8.880;2022-12-20T05:06:12;2.50;99.90
12634;DHT22;6382;48.614;8.880;2022-12-20T05:08:39;2.50;99.90
12634;DHT22;6382;48.614;8.880;2022-12-20T05:11:06;2.60;99.90
12634;DHT22;6382;48.614;8.880;2022-12-20T05:13:33;2.60;99.90
12634;DHT22;6382;48.614;8.880;2022-12-20T05:15:59;2.60;99.90
12634;DHT22;6382;48.614;8.880;2022-12-20T05:18:26;2.60;99.90
12634;DHT22;6382;48.614;8.880;2022-12-20T05:20:54;2.60;99.90
12634;DHT22;6382;48.614;8.880;2022-12-20T05:23:40;2.60;99.90
12634;DHT22;6382;48.614;8.880;2022-12-20T05:26:28;2.60;99.90
12634;DHT22;6382;48.614;8.880;2022-12-20T05:28:55;2.60;99.90
12634;DHT22;6382;48.614;8.880;2022-12-20T05:31:22;2.70;99.90
12634;DHT22;6382;48.614;8.880;2022-12-20T05:33:48;2.70;99.90
12634;DHT22;6382;48.614;8.880;2022-12-20T05:36:15;2.70;99.90
12634;DHT22;6382;48.614;8.880;2022-12-20T05:38:42;2.70;99.90
12634;DHT22;6382;48.614;8.880;2022-12-20T05:41:09;2.70;99.90
12634;DHT22;6382;48.614;8.880;2022-12-20T05:43:35;4.20;99.90
12634;DHT22;6382;48.614;8.880;2022-12-20T05:46:02;2.60;99.90
12634;DHT22;6382;48.614;8.880;2022-12-20T05:48:29;2.70;99.90
12634;DHT22;6382;48.614;8.880;2022-12-20T05:50:55;2.60;99.90
12634;DHT22;6382;48.614;8.880;2022-12-20T05:53:22;4.70;99.90
12634;DHT22;6382;48.614;8.880;2022-12-20T05:55:50;2.60;99.90
12634;DHT22;6382;48.614;8.880;2022-12-20T05:58:17;2.60;99.90
12634;DHT22;6382;48.614;8.880;2022-12-20T06:00:44;2.60;99.90
12634;DHT22;6382;48.614;8.880;2022-12-20T06:03:13;2.70;99.90
12634;DHT22;6382;48.614;8.880;2022-12-20T06:05:41;2.70;99.90
12634;DHT22;6382;48.614;8.880;2022-12-20T06:08:09;2.70;99.90
12634;DHT22;6382;48.614;8.880;2022-12-20T06:10:36;2.80;99.90
12634;DHT22;6382;48.614;8.880;2022-12-20T06:13:03;2.90;99.90
12634;DHT22;6382;48.614;8.880;2022-12-20T06:15:30;3.00;99.90
12634;DHT22;6382;48.614;8.880;2022-12-20T06:17:56;3.00;99.90
12634;DHT22;6382;48.614;8.880;2022-12-20T06:20:23;3.00;99.90
12634;DHT22;6382;48.614;8.880;2022-12-20T06:22:50;3.00;99.90
12634;DHT22;6382;48.614;8.880;2022-12-20T06:25:19;3.10;99.90
12634;DHT22;6382;48.614;8.880;2022-12-20T06:27:46;3.20;99.90
12634;DHT22;6382;48.614;8.880;2022-12-20T06:30:12;3.10;99.90
12634;DHT22;6382;48.614;8.880;2022-12-20T06:32:39;3.10;99.90
12634;DHT22;6382;48.614;8.880;2022-12-20T06:35:06;3.20;99.90
12634;DHT22;6382;48.614;8.880;2022-12-20T06:37:33;3.20;99.90
12634;DHT22;6382;48.614;8.880;2022-12-20T06:40:00;3.20;99.90
12634;DHT22;6382;48.614;8.880;2022-12-20T06:42:26;3.30;99.90
12634;DHT22;6382;48.614;8.880;2022-12-20T06:44:53;3.40;99.90
12634;DHT22;6382;48.614;8.880;2022-12-20T06:47:20;3.40;99.90
12634;DHT22;6382;48.614;8.880;2022-12-20T06:49:46;3.40;99.90
12634;DHT22;6382;48.614;8.880;2022-12-20T06:52:13;3.50;99.90
12634;DHT22;6382;48.614;8.880;2022-12-20T06:54:39;3.50;99.90
12634;DHT22;6382;48.614;8.880;2022-12-20T06:57:06;3.60;99.90
12634;DHT22;6382;48.614;8.880;2022-12-20T06:59:33;3.60;99.90
12634;DHT22;6382;48.614;8.880;2022-12-20T07:02:00;4.30;99.90
12634;DHT22;6382;48.614;8.880;2022-12-20T07:04:28;3.60;99.90
12634;DHT22;6382;48.614;8.880;2022-12-20T07:06:55;3.70;99.90
12634;DHT22;6382;48.614;8.880;2022-12-20T07:09:22;3.70;99.90
12634;DHT22;6382;48.614;8.880;2022-12-20T07:11:49;3.60;99.90
12634;DHT22;6382;48.614;8.880;2022-12-20T07:14:16;3.70;99.90
12634;DHT22;6382;48.614;8.880;2022-12-20T07:16:42;3.70;99.90
12634;DHT22;6382;48.614;8.880;2022-12-20T07:19:10;3.80;99.90
12634;DHT22;6382;48.614;8.880;2022-12-20T07:21:37;3.80;99.90
12634;DHT22;6382;48.614;8.880;2022-12-20T07:24:04;5.50;99.90
12634;DHT22;6382;48.614;8.880;2022-12-20T07:26:31;3.80;99.90
12634;DHT22;6382;48.614;8.880;2022-12-20T07:28:58;3.90;99.90
12634;DHT22;6382;48.614;8.880;2022-12-20T07:31:25;3.90;99.90
12634;DHT22;6382;48.614;8.880;2022-12-20T07:33:52;5.90;99.90
12634;DHT22;6382;48.614;8.880;2022-12-20T07:36:18;4.00;99.90
12634;DHT22;6382;48.614;8.880;2022-12-20T07:38:45;4.10;99.90
12634;DHT22;6382;48.614;8.880;2022-12-20T07:41:13;4.30;99.90
12634;DHT22;6382;48.614;8.880;2022-12-20T07:43:40;4.10;99.90
12634;DHT22;6382;48.614;8.880;2022-12-20T07:46:07;4.10;99.90
12634;DHT22;6382;48.614;8.880;2022-12-20T07:48:34;4.10;99.90
12634;DHT22;6382;48.614;8.880;2022-12-20T07:51:10;4.20;99.90
12634;DHT22;6382;48.614;8.880;2022-12-20T07:53:38;4.20;99.90
12634;DHT22;6382;48.614;8.880;2022-12-20T07:56:06;4.30;99.90
12634;DHT22;6382;48.614;8.880;2022-12-20T07:58:34;4.30;99.90
12634;DHT22;6382;48.614;8.880;2022-12-20T08:01:00;4.30;99.90
12634;DHT22;6382;48.614;8.880;2022-12-20T08:03:29;4.40;99.90
12634;DHT22;6382;48.614;8.880;2022-12-20T08:05:58;4.40;99.90
12634;DHT22;6382;48.614;8.880;2022-12-20T08:08:26;4.40;99.90
12634;DHT22;6382;48.614;8.880;2022-12-20T08:10:53;4.40;99.90
12634;DHT22;6382;48.614;8.880;2022-12-20T08:13:19;4.50;99.90
12634;DHT22;6382;48.614;8.880;2022-12-20T08:15:46;4.50;99.90
12634;DHT22;6382;48.614;8.880;2022-12-20T08:18:13;4.50;99.90
12634;DHT22;6382;48.614;8.880;2022-12-20T08:20:41;4.50;99.90
12634;DHT22;6382;48.614;8.880;2022-12-20T08:23:08;4.60;99.90
12634;DHT22;6382;48.614;8.880;2022-12-20T08:25:35;4.60;99.90
12634;DHT22;6382;48.614;8.880;2022-12-20T08:28:07;4.70;99.90
12634;DHT22;6382;48.614;8.880;2022-12-20T08:30:34;4.60;99.90
12634;DHT22;6382;48.614;8.880;2022-12-20T08:33:01;4.70;99.90
12634;DHT22;6382;48.614;8.880;2022-12-20T08:35:27;4.60;99.90
12634;DHT22;6382;48.614;8.880;2022-12-20T08:37:54;4.70;99.90
12634;DHT22;6382;48.614;8.880;2022-12-20T08:40:22;4.80;99.90
12634;DHT22;6382;48.614;8.880;2022-12-20T08:42:48;4.80;99.90
12634;DHT22;6382;48.614;8.880;2022-12-20T08:45:15;2.50;99.90
12634;DHT22;6382;48.614;8.880;2022-12-20T08:47:42;4.80;99.90
12634;DHT22;6382;48.614;8.880;2022-12-20T08:50:11;4.90;99.90
12634;DHT22;6382;48.614;8.880;2022-12-20T08:52:39;5.00;99.90
12634;DHT22;6382;48.614;8.880;2022-12-20T08:55:05;4.90;99.90
12634;DHT22;6382;48.614;8.880;2022-12-20T08:57:32;4.90;99.90
12634;DHT22;6382;48.614;8.880;2022-12-20T08:59:59;4.90;99.90
12634;DHT22;6382;48.614;8.880;2022-12-20T09:02:26;4.80;99.90
12634;DHT22;6382;48.614;8.880;2022-12-20T09:04:53;4.90;99.90
12634;DHT22;6382;48.614;8.880;2022-12-20T09:07:19;4.80;99.90
12634;DHT22;6382;48.614;8.880;2022-12-20T09:09:46;4.80;99.90
12634;DHT22;6382;48.614;8.880;2022-12-20T09:12:13;4.80;99.90
12634;DHT22;6382;48.614;8.880;2022-12-20T09:14:40;4.80;99.90
12634;DHT22;6382;48.614;8.880;2022-12-20T09:17:07;4.80;99.90
12634;DHT22;6382;48.614;8.880;2022-12-20T09:19:34;6.70;99.90
12634;DHT22;6382;48.614;8.880;2022-12-20T09:22:00;3.90;99.90
12634;DHT22;6382;48.614;8.880;2022-12-20T09:24:27;4.70;99.90
12634;DHT22;6382;48.614;8.880;2022-12-20T09:26:54;6.20;99.90
12634;DHT22;6382;48.614;8.880;2022-12-20T09:29:22;4.90;99.90
12634;DHT22;6382;48.614;8.880;2022-12-20T09:31:59;4.90;99.90
12634;DHT22;6382;48.614;8.880;2022-12-20T09:34:26;6.50;99.90
12634;DHT22;6382;48.614;8.880;2022-12-20T09:36:53;5.00;99.90
12634;DHT22;6382;48.614;8.880;2022-12-20T09:39:20;5.10;99.90
12634;DHT22;6382;48.614;8.880;2022-12-20T09:41:47;5.10;99.90
12634;DHT22;6382;48.614;8.880;2022-12-20T09:44:28;5.10;99.90
12634;DHT22;6382;48.614;8.880;2022-12-20T09:46:59;5.20;99.90
12634;DHT22;6382;48.614;8.880;2022-12-20T09:49:36;5.30;99.90
12634;DHT22;6382;48.614;8.880;2022-12-20T09:54:36;5.40;99.90
12634;DHT22;6382;48.614;8.880;2022-12-20T09:57:13;5.50;99.90
12634;DHT22;6382;48.614;8.880;2022-12-20T09:59:42;5.50;99.90
12634;DHT22;6382;48.614;8.880;2022-12-20T10:02:17;5.60;99.90
12634;DHT22;6382;48.614;8.880;2022-12-20T10:05:08;5.60;99.90
12634;DHT22;6382;48.614;8.880;2022-12-20T10:07:41;5.60;99.90
12634;DHT22;6382;48.614;8.880;2022-12-20T10:15:19;5.50;99.90
12634;DHT22;6382;48.614;8.880;2022-12-20T10:20:26;5.50;99.90
12634;DHT22;6382;48.614;8.880;2022-12-20T10:23:03;5.40;99.90
12634;DHT22;6382;48.614;8.880;2022-12-20T10:25:34;5.40;99.90
12634;DHT22;6382;48.614;8.880;2022-12-20T10:28:02;5.30;99.90
12634;DHT22;6382;48.614;8.880;2022-12-20T10:30:31;5.40;99.90
12634;DHT22;6382;48.614;8.880;2022-12-20T10:32:57;5.40;99.90
12634;DHT22;6382;48.614;8.880;2022-12-20T10:35:26;5.40;99.90
12634;DHT22;6382;48.614;8.880;2022-12-20T10:40:38;5.40;99.90
12634;DHT22;6382;48.614;8.880;2022-12-20T10:43:25;5.40;99.90
12634;DHT22;6382;48.614;8.880;2022-12-20T10:45:56;5.40;99.90
12634;DHT22;6382;48.614;8.880;2022-12-20T10:51:01;5.40;99.90
12634;DHT22;6382;48.614;8.880;2022-12-20T10:53:28;5.50;99.90
12634;DHT22;6382;48.614;8.880;2022-12-20T10:58:34;5.50;99.90
12634;DHT22;6382;48.614;8.880;2022-12-20T11:01:12;5.60;99.90
12634;DHT22;6382;48.614;8.880;2022-12-20T11:03:49;5.60;99.90
12634;DHT22;6382;48.614;8.880;2022-12-20T11:06:17;5.70;99.90
12634;DHT22;6382;48.614;8.880;2022-12-20T11:08:44;5.70;99.90
12634;DHT22;6382;48.614;8.880;2022-12-20T11:11:22;5.70;99.90
12634;DHT22;6382;48.614;8.880;2022-12-20T11:13:50;5.70;99.90
12634;DHT22;6382;48.614;8.880;2022-12-20T11:21:29;5.70;99.90
12634;DHT22;6382;48.614;8.880;2022-12-20T11:24:01;5.80;99.90
12634;DHT22;6382;48.614;8.880;2022-12-20T11:32:07;5.90;99.90
12634;DHT22;6382;48.614;8.880;2022-12-20T11:34:50;5.90;99.90
12634;DHT22;6382;48.614;8.880;2022-12-20T11:37:22;6.00;99.90
12634;DHT22;6382;48.614;8.880;2022-12-20T11:40:02;6.10;99.90
12634;DHT22;6382;48.614;8.880;2022-12-20T11:53:03;6.00;99.90
12634;DHT22;6382;48.614;8.880;2022-12-20T11:55:34;6.10;99.90
12634;DHT22;6382;48.614;8.880;2022-12-20T11:58:05;6.10;99.90
12634;DHT22;6382;48.614;8.880;2022-12-20T12:03:29;5.90;99.90
12634;DHT22;6382;48.614;8.880;2022-12-20T12:05:59;5.90;99.90
12634;DHT22;6382;48.614;8.880;2022-12-20T12:11:31;5.90;99.90
12634;DHT22;6382;48.614;8.880;2022-12-20T12:14:28;5.90;99.90
12634;DHT22;6382;48.614;8.880;2022-12-20T12:16:56;5.90;99.90
12634;DHT22;6382;48.614;8.880;2022-12-20T12:19:25;6.00;99.90
12634;DHT22;6382;48.614;8.880;2022-12-20T12:21:52;5.90;99.90
12634;DHT22;6382;48.614;8.880;2022-12-20T12:24:23;5.90;99.90
12634;DHT22;6382;48.614;8.880;2022-12-20T12:26:51;5.90;99.90
12634;DHT22;6382;48.614;8.880;2022-12-20T12:29:18;5.90;99.90
12634;DHT22;6382;48.614;8.880;2022-12-20T12:31:48;6.00;99.90
12634;DHT22;6382;48.614;8.880;2022-12-20T12:45:21;6.10;99.90
12634;DHT22;6382;48.614;8.880;2022-12-20T12:47:53;6.10;99.90
12634;DHT22;6382;48.614;8.880;2022-12-20T12:52:55;6.10;99.90
12634;DHT22;6382;48.614;8.880;2022-12-20T13:00:51;6.10;99.90
12634;DHT22;6382;48.614;8.880;2022-12-20T13:09:09;6.20;99.90
12634;DHT22;6382;48.614;8.880;2022-12-20T13:11:37;6.30;99.90
12634;DHT22;6382;48.614;8.880;2022-12-20T13:16:51;6.20;99.90
12634;DHT22;6382;48.614;8.880;2022-12-20T13:19:39;6.20;99.90
12634;DHT22;6382;48.614;8.880;2022-12-20T13:24:53;6.10;99.90
12634;DHT22;6382;48.614;8.880;2022-12-20T13:37:55;6.00;99.90
12634;DHT22;6382;48.614;8.880;2022-12-20T13:40:30;6.00;99.90
12634;DHT22;6382;48.614;8.880;2022-12-20T13:42:58;6.00;99.90
12634;DHT22;6382;48.614;8.880;2022-12-20T13:45:27;6.20;99.90
12634;DHT22;6382;48.614;8.880;2022-12-20T13:47:55;6.30;99.90
12634;DHT22;6382;48.614;8.880;2022-12-20T13:50:30;6.20;99.90
12634;DHT22;6382;48.614;8.880;2022-12-20T13:52:57;6.20;99.90
12634;DHT22;6382;48.614;8.880;2022-12-20T13:55:37;8.20;99.90
12634;DHT22;6382;48.614;8.880;2022-12-20T13:58:15;6.20;99.90
12634;DHT22;6382;48.614;8.880;2022-12-20T14:00:43;6.10;99.90
12634;DHT22;6382;48.614;8.880;2022-12-20T14:03:17;6.20;99.90
12634;DHT22;6382;48.614;8.880;2022-12-20T14:05:45;6.20;99.90
12634;DHT22;6382;48.614;8.880;2022-12-20T14:08:13;6.20;99.90
12634;DHT22;6382;48.614;8.880;2022-12-20T14:10:40;6.10;99.90
12634;DHT22;6382;48.614;8.880;2022-12-20T14:13:17;6.10;99.90
12634;DHT22;6382;48.614;8.880;2022-12-20T14:15:44;6.10;99.90
12634;DHT22;6382;48.614;8.880;2022-12-20T14:18:15;6.10;99.90
12634;DHT22;6382;48.614;8.880;2022-12-20T14:20:43;6.10;99.90
12634;DHT22;6382;48.614;8.880;2022-12-20T14:23:15;6.10;99.90
12634;DHT22;6382;48.614;8.880;2022-12-20T14:25:50;6.00;99.90
12634;DHT22;6382;48.614;8.880;2022-12-20T14:28:21;6.00;99.90
12634;DHT22;6382;48.614;8.880;2022-12-20T14:30:53;6.00;99.90
12634;DHT22;6382;48.614;8.880;2022-12-20T14:33:25;6.00;99.90
12634;DHT22;6382;48.614;8.880;2022-12-20T14:35:53;6.00;99.90
12634;DHT22;6382;48.614;8.880;2022-12-20T14:38:24;5.90;99.90
12634;DHT22;6382;48.614;8.880;2022-12-20T14:40:54;5.90;99.90
12634;DHT22;6382;48.614;8.880;2022-12-20T14:43:28;5.90;99.90
12634;DHT22;6382;48.614;8.880;2022-12-20T14:46:16;5.90;99.90
12634;DHT22;6382;48.614;8.880;2022-12-20T14:48:45;5.80;99.90
12634;DHT22;6382;48.614;8.880;2022-12-20T14:51:12;5.80;99.90
12634;DHT22;6382;48.614;8.880;2022-12-20T14:53:39;5.70;99.90
12634;DHT22;6382;48.614;8.880;2022-12-20T14:56:12;5.70;99.90
12634;DHT22;6382;48.614;8.880;2022-12-20T14:58:39;5.70;99.90
12634;DHT22;6382;48.614;8.880;2022-12-20T15:01:19;5.60;99.90
12634;DHT22;6382;48.614;8.880;2022-12-20T15:03:50;5.60;99.90
12634;DHT22;6382;48.614;8.880;2022-12-20T15:06:29;5.50;99.90
12634;DHT22;6382;48.614;8.880;2022-12-20T15:08:56;5.50;99.90
12634;DHT22;6382;48.614;8.880;2022-12-20T15:11:23;5.50;99.90
12634;DHT22;6382;48.614;8.880;2022-12-20T15:13:51;5.50;99.90
12634;DHT22;6382;48.614;8.880;2022-12-20T15:16:22;5.40;99.90
12634;DHT22;6382;48.614;8.880;2022-12-20T15:18:56;5.40;99.90
12634;DHT22;6382;48.614;8.880;2022-12-20T15:21:26;5.30;99.90
12634;DHT22;6382;48.614;8.880;2022-12-20T15:23:54;5.30;99.90
12634;DHT22;6382;48.614;8.880;2022-12-20T15:26:22;5.20;99.90
12634;DHT22;6382;48.614;8.880;2022-12-20T15:28:49;5.20;99.90
12634;DHT22;6382;48.614;8.880;2022-12-20T15:31:17;5.20;99.90
12634;DHT22;6382;48.614;8.880;2022-12-20T15:33:44;5.10;99.90
12634;DHT22;6382;48.614;8.880;2022-12-20T15:36:15;5.10;99.90
12634;DHT22;6382;48.614;8.880;2022-12-20T15:38:42;5.10;99.90
12634;DHT22;6382;48.614;8.880;2022-12-20T15:41:30;5.10;99.90
12634;DHT22;6382;48.614;8.880;2022-12-20T15:44:05;5.00;99.90
12634;DHT22;6382;48.614;8.880;2022-12-20T15:46:31;5.00;99.90
12634;DHT22;6382;48.614;8.880;2022-12-20T15:48:58;5.00;99.90
12634;DHT22;6382;48.614;8.880;2022-12-20T15:51:35;5.00;99.90
12634;DHT22;6382;48.614;8.880;2022-12-20T15:54:03;4.90;99.90
12634;DHT22;6382;48.614;8.880;2022-12-20T15:56:30;6.30;99.90
12634;DHT22;6382;48.614;8.880;2022-12-20T15:58:57;4.90;99.90
12634;DHT22;6382;48.614;8.880;2022-12-20T16:01:28;4.90;99.90
12634;DHT22;6382;48.614;8.880;2022-12-20T16:04:06;4.80;99.90
12634;DHT22;6382;48.614;8.880;2022-12-20T16:06:33;4.90;99.90
12634;DHT22;6382;48.614;8.880;2022-12-20T16:09:00;4.80;99.90
12634;DHT22;6382;48.614;8.880;2022-12-20T16:11:27;4.90;99.90
12634;DHT22;6382;48.614;8.880;2022-12-20T16:13:55;4.90;99.90
12634;DHT22;6382;48.614;8.880;2022-12-20T16:16:25;4.90;99.90
12634;DHT22;6382;48.614;8.880;2022-12-20T16:18:52;4.90;99.90
12634;DHT22;6382;48.614;8.880;2022-12-20T16:21:23;4.90;99.90
12634;DHT22;6382;48.614;8.880;2022-12-20T16:23:50;5.00;99.90
12634;DHT22;6382;48.614;8.880;2022-12-20T16:26:18;5.00;99.90
12634;DHT22;6382;48.614;8.880;2022-12-20T16:28:45;7.30;99.90
12634;DHT22;6382;48.614;8.880;2022-12-20T16:33:42;4.90;99.90
12634;DHT22;6382;48.614;8.880;2022-12-20T16:36:12;5.00;99.90
12634;DHT22;6382;48.614;8.880;2022-12-20T16:38:40;4.90;99.90
12634;DHT22;6382;48.614;8.880;2022-12-20T16:41:14;5.00;99.90
12634;DHT22;6382;48.614;8.880;2022-12-20T16:43:40;4.90;99.90
12634;DHT22;6382;48.614;8.880;2022-12-20T16:46:17;5.00;99.90
12634;DHT22;6382;48.614;8.880;2022-12-20T16:48:45;5.10;99.90
12634;DHT22;6382;48.614;8.880;2022-12-20T16:53:52;5.10;99.90
12634;DHT22;6382;48.614;8.880;2022-12-20T16:56:38;5.10;99.90
12634;DHT22;6382;48.614;8.880;2022-12-20T16:59:06;5.10;99.90
12634;DHT22;6382;48.614;8.880;2022-12-20T17:01:45;5.10;99.90
12634;DHT22;6382;48.614;8.880;2022-12-20T17:04:13;5.10;99.90
12634;DHT22;6382;48.614;8.880;2022-12-20T17:06:41;6.80;99.90
12634;DHT22;6382;48.614;8.880;2022-12-20T17:09:08;5.10;99.90
12634;DHT22;6382;48.614;8.880;2022-12-20T17:11:52;5.10;99.90
12634;DHT22;6382;48.614;8.880;2022-12-20T17:14:19;5.20;99.90
12634;DHT22;6382;48.614;8.880;2022-12-20T17:16:46;5.20;99.90
12634;DHT22;6382;48.614;8.880;2022-12-20T17:19:13;5.20;99.90
12634;DHT22;6382;48.614;8.880;2022-12-20T17:21:41;5.20;99.90
12634;DHT22;6382;48.614;8.880;2022-12-20T17:24:25;5.30;99.90
12634;DHT22;6382;48.614;8.880;2022-12-20T17:26:52;5.30;99.90
12634;DHT22;6382;48.614;8.880;2022-12-20T17:29:19;5.40;99.90
12634;DHT22;6382;48.614;8.880;2022-12-20T17:31:46;5.40;99.90
12634;DHT22;6382;48.614;8.880;2022-12-20T17:36:46;5.50;99.90
12634;DHT22;6382;48.614;8.880;2022-12-20T17:39:13;6.10;99.90
12634;DHT22;6382;48.614;8.880;2022-12-20T17:41:40;5.60;99.90
12634;DHT22;6382;48.614;8.880;2022-12-20T17:44:13;5.60;99.90
12634;DHT22;6382;48.614;8.880;2022-12-20T17:46:41;5.60;99.90
12634;DHT22;6382;48.614;8.880;2022-12-20T17:49:09;5.60;99.90
12634;DHT22;6382;48.614;8.880;2022-12-20T17:51:36;5.60;99.90
12634;DHT22;6382;48.614;8.880;2022-12-20T17:54:02;5.60;99.90
12634;DHT22;6382;48.614;8.880;2022-12-20T17:56:30;5.60;99.90
12634;DHT22;6382;48.614;8.880;2022-12-20T17:58:57;5.50;99.90
12634;DHT22;6382;48.614;8.880;2022-12-20T18:01:25;5.50;99.90
12634;DHT22;6382;48.614;8.880;2022-12-20T18:03:53;5.50;99.90